Time;durP1;ratioP1;P1;durP2;ratioP2;P2;SDS_P1;SDS_P2;PMS_P1;PMS_P2;Temp;Humidity;BMP_temperature;BMP_pressure;BME280_temperature;BME280_humidity;BME280_pressure;Samples;Min_cycle;Max_cycle;Signal;HPM_P1;HPM_P2
2022/08/11 00:02:23;;;;;;;;;;;;;;;18.84;51.21;101699.03;5072832;28;19952;-79
2022/08/11 00:04:49;;;;;;;;;;;;;;;18.81;51.02;101696.53;5053569;28;19925;-79
2022/08/11 00:07:14;;;;;;;;;;;;;;;18.83;51.51;101693.84;5071144;28;20004;-79
2022/08/11 00:09:40;;;;;;;;;;;;;;;18.80;51.42;101692.19;5064787;28;19916;-79
2022/08/11 00:12:12;;;;;;;;;;;;;;;18.81;51.12;101693.06;5065413;28;19955;-79
2022/08/11 00:14:37;;;;;;;;;;;;;;;18.82;51.16;101694.75;5064620;28;19917;-79
2022/08/11 00:17:04;;;;;;;;;;;;;;;18.81;50.21;101687.78;5047589;28;20011;-79
2022/08/11 00:19:31;;;;;;;;;;;;;;;18.80;51.29;101689.56;5060238;28;20340;-79
2022/08/11 00:21:58;;;;;;;;;;;;;;;18.77;50.85;101692.31;5058237;28;19920;-79
2022/08/11 00:24:24;;;;;;;;;;;;;;;18.76;50.92;101690.59;5063711;28;20364;-79
2022/08/11 00:26:50;;;;;;;;;;;;;;;18.75;51.42;101690.66;5062240;28;19967;-79
2022/08/11 00:29:15;;;;;;;;;;;;;;;18.72;51.54;101690.78;5049547;28;20007;-79
2022/08/11 00:32:01;;;;;;;;;;;;;;;18.73;51.38;101695.13;5055538;28;20007;-79
2022/08/11 00:34:29;;;;;;;;;;;;;;;18.72;51.32;101698.69;5063296;28;19944;-79
2022/08/11 00:37:15;;;;;;;;;;;;;;;18.67;51.58;101691.81;5057733;28;19925;-79
2022/08/11 00:39:42;;;;;;;;;;;;;;;18.64;50.89;101696.34;5059781;28;19963;-79
2022/08/11 00:42:23;;;;;;;;;;;;;;;18.63;51.40;101698.13;5068786;28;19913;-79
2022/08/11 00:44:48;;;;;;;;;;;;;;;18.64;51.07;101693.72;5064694;28;19920;-79
2022/08/11 00:47:23;;;;;;;;;;;;;;;18.57;51.61;101692.25;5062385;28;20360;-79
2022/08/11 00:49:48;;;;;;;;;;;;;;;18.59;51.35;101698.31;5059885;28;19925;-79
2022/08/11 00:52:23;;;;;;;;;;;;;;;18.57;51.36;101690.47;5067192;28;20307;-79
2022/08/11 00:55:01;;;;;;;;;;;;;;;18.55;51.65;101694.94;5057443;28;19928;-79
2022/08/11 00:57:45;;;;;;;;;;;;;;;18.55;51.27;101700.19;5062487;28;19921;-79
2022/08/11 01:00:12;;;;;;;;;;;;;;;18.53;51.88;101695.91;5066324;28;19939;-79
2022/08/11 01:02:43;;;;;;;;;;;;;;;18.54;52.20;101695.84;5058714;28;19921;-79
2022/08/11 01:05:33;;;;;;;;;;;;;;;18.49;52.25;101697.81;5052995;28;19927;-79
2022/08/11 01:08:10;;;;;;;;;;;;;;;18.46;51.78;101695.28;5061143;28;20274;-79
2022/08/11 01:10:54;;;;;;;;;;;;;;;18.46;52.12;101699.69;5068900;28;20573;-79
2022/08/11 01:13:38;;;;;;;;;;;;;;;18.46;52.20;101702.31;5049912;28;20015;-79
2022/08/11 01:16:04;;;;;;;;;;;;;;;18.41;52.14;101699.84;5053190;28;19999;-79
2022/08/11 01:18:32;;;;;;;;;;;;;;;18.41;52.29;101699.00;5056519;28;19921;-79
2022/08/11 01:21:16;;;;;;;;;;;;;;;18.41;52.11;101704.25;5064916;28;19916;-79
2022/08/11 01:24:01;;;;;;;;;;;;;;;18.42;52.34;101706.81;5038913;28;20004;-79
2022/08/11 01:26:46;;;;;;;;;;;;;;;18.38;52.05;101707.88;5059630;28;19924;-79
2022/08/11 01:29:20;;;;;;;;;;;;;;;18.35;52.15;101702.72;5060522;28;19920;-79
2022/08/11 01:32:00;;;;;;;;;;;;;;;18.32;52.03;101704.59;5064324;28;19920;-79
2022/08/11 01:34:26;;;;;;;;;;;;;;;18.35;52.19;101701.84;5064557;28;19927;-79
2022/08/11 01:37:09;;;;;;;;;;;;;;;18.34;52.50;101701.00;5058381;28;19921;-79
2022/08/11 01:39:35;;;;;;;;;;;;;;;18.33;52.20;101698.44;5065569;28;19920;-79
2022/08/11 01:45:24;;;;;;;;;;;;;;;18.31;52.22;101706.38;5057092;28;20017;-79
2022/08/11 01:47:52;;;;;;;;;;;;;;;18.30;52.32;101704.69;5060102;28;19974;-79
2022/08/11 01:50:24;;;;;;;;;;;;;;;18.31;52.54;101701.09;5059437;28;20396;-79
2022/08/11 01:52:52;;;;;;;;;;;;;;;18.29;52.60;101705.59;5056917;28;19924;-79
2022/08/11 01:55:26;;;;;;;;;;;;;;;18.29;52.30;101705.59;5062675;28;19928;-79
2022/08/11 01:58:05;;;;;;;;;;;;;;;18.27;52.35;101704.78;5057652;28;20007;-79
2022/08/11 02:00:34;;;;;;;;;;;;;;;18.26;52.87;101705.69;5073451;28;19959;-79
2022/08/11 02:03:20;;;;;;;;;;;;;;;18.21;53.12;101706.78;5058452;28;19932;-79
2022/08/11 02:05:59;;;;;;;;;;;;;;;18.18;53.32;101707.78;5064472;28;19932;-80
2022/08/11 02:08:41;;;;;;;;;;;;;;;18.21;53.85;101702.41;5056201;28;19925;-79
2022/08/11 02:11:35;;;;;;;;;;;;;;;18.25;53.61;101701.34;5057528;28;19924;-79
2022/08/11 02:14:09;;;;;;;;;;;;;;;18.25;53.10;101703.09;5067382;28;19928;-77
2022/08/11 02:16:54;;;;;;;;;;;;;;;18.18;52.87;101704.28;5062619;28;20344;-77
2022/08/11 02:25:10;;;;;;;;;;;;;;;18.11;53.45;101712.41;5042748;28;19924;-77
2022/08/11 02:27:48;;;;;;;;;;;;;;;18.11;53.41;101706.28;5057801;28;19917;-77
2022/08/11 02:30:15;;;;;;;;;;;;;;;18.04;53.46;101715.28;5060368;28;19917;-77
2022/08/11 02:35:44;;;;;;;;;;;;;;;18.08;53.69;101716.91;5059045;28;20014;-77
2022/08/11 02:38:20;;;;;;;;;;;;;;;18.05;53.17;101712.63;5062624;28;19931;-77
2022/08/11 02:42:21;;;;;;;;;;;;;;;18.10;53.27;101712.44;5071831;28;20304;-77
2022/08/11 02:44:13;;;;;;;;;;;;;;;18.07;53.09;101707.28;5060841;28;19979;-77
2022/08/11 02:46:53;;;;;;;;;;;;;;;18.05;54.08;101704.72;5074870;28;19939;-77
2022/08/11 02:52:15;;;;;;;;;;;;;;;18.06;53.80;101706.47;5066860;28;19966;-77
2022/08/11 02:54:43;;;;;;;;;;;;;;;18.02;53.69;101702.22;5069131;28;19917;-77
2022/08/11 02:57:17;;;;;;;;;;;;;;;17.93;53.85;101705.19;5066229;28;19920;-77
2022/08/11 03:00:06;;;;;;;;;;;;;;;17.94;53.91;101708.66;5065664;28;20381;-77
2022/08/11 03:02:31;;;;;;;;;;;;;;;17.95;53.76;101705.97;5058308;28;19924;-77
2022/08/11 03:05:16;;;;;;;;;;;;;;;17.94;53.69;101706.03;5067065;28;19925;-77
2022/08/11 03:08:00;;;;;;;;;;;;;;;17.86;53.85;101711.56;5063314;28;19944;-76
2022/08/11 03:10:28;;;;;;;;;;;;;;;17.83;53.29;101701.16;5069022;28;19920;-77
2022/08/11 03:19:13;;;;;;;;;;;;;;;17.82;53.88;101706.50;5065348;28;20430;-77
2022/08/11 03:21:58;;;;;;;;;;;;;;;17.85;53.93;101706.38;5060837;28;19916;-77
2022/08/11 03:24:42;;;;;;;;;;;;;;;17.84;53.64;101707.28;5063630;28;20015;-77
2022/08/11 03:27:10;;;;;;;;;;;;;;;17.83;53.42;101705.59;5065498;28;20523;-77
2022/08/11 03:29:45;;;;;;;;;;;;;;;17.81;53.31;101704.75;5066327;28;20136;-77
2022/08/11 03:32:21;;;;;;;;;;;;;;;17.75;54.09;101697.97;5055497;28;19947;-77
2022/08/11 03:34:48;;;;;;;;;;;;;;;17.75;53.69;101708.47;5055366;28;19921;-77
2022/08/11 03:37:50;;;;;;;;;;;;;;;17.80;52.79;101698.66;5066719;28;19993;-77
2022/08/11 03:43:18;;;;;;;;;;;;;;;17.84;51.95;101702.88;5061060;28;20004;-77
2022/08/11 03:46:02;;;;;;;;;;;;;;;17.77;52.34;101701.38;5068822;28;19967;-77
2022/08/11 03:48:39;;;;;;;;;;;;;;;17.71;52.46;101700.75;5061207;28;19920;-77
2022/08/11 03:51:28;;;;;;;;;;;;;;;17.73;52.59;101706.81;5068224;28;19925;-77
2022/08/11 03:54:00;;;;;;;;;;;;;;;17.80;51.80;101703.06;5025006;28;20035;-77
2022/08/11 03:56:41;;;;;;;;;;;;;;;17.76;52.53;101702.31;5061040;28;19925;-77
2022/08/11 03:59:19;;;;;;;;;;;;;;;17.77;52.18;101704.00;5061221;28;20296;-76
2022/08/11 04:02:04;;;;;;;;;;;;;;;17.79;52.64;101709.22;5058796;28;20381;-77
2022/08/11 04:04:29;;;;;;;;;;;;;;;17.64;53.25;101704.50;5061347;28;20011;-77
2022/08/11 04:07:13;;;;;;;;;;;;;;;17.65;53.05;101704.44;5062714;28;20008;-77
2022/08/11 04:09:56;;;;;;;;;;;;;;;17.62;53.02;101703.72;5059450;28;20270;-77
2022/08/11 04:12:40;;;;;;;;;;;;;;;17.60;52.95;101711.63;5062198;28;19916;-77
2022/08/11 04:18:17;;;;;;;;;;;;;;;17.50;53.31;101707.59;5063382;28;19978;-77
2022/08/11 04:20:57;;;;;;;;;;;;;;;17.54;53.31;101709.19;5064794;28;20019;-77
2022/08/11 04:23:23;;;;;;;;;;;;;;;17.56;53.24;101707.38;5060202;28;20533;-76
2022/08/11 04:26:06;;;;;;;;;;;;;;;17.53;52.68;101712.75;5061720;28;19920;-77
2022/08/11 04:28:41;;;;;;;;;;;;;;;17.56;53.29;101710.03;5057890;28;20329;-77
2022/08/11 04:31:34;;;;;;;;;;;;;;;17.54;53.12;101706.56;5056496;28;19971;-77
2022/08/11 04:34:18;;;;;;;;;;;;;;;17.54;53.03;101717.06;5069572;28;19928;-77
2022/08/11 04:39:59;;;;;;;;;;;;;;;17.49;53.28;101719.00;5060776;28;19924;-77
2022/08/11 04:45:36;;;;;;;;;;;;;;;17.54;53.14;101717.94;5063051;28;19986;-77
2022/08/11 05:02:42;;;;;;;;;;;;;;;17.60;53.60;101743.16;5054950;28;19935;-77
2022/08/11 05:08:11;;;;;;;;;;;;;;;17.67;52.81;101733.31;5056606;28;19963;-77
2022/08/11 05:10:49;;;;;;;;;;;;;;;17.63;53.26;101731.69;5042575;28;19921;-77
2022/08/11 05:35:44;;;;;;;;;;;;;;;17.76;54.03;101733.84;5054817;28;19928;-77
2022/08/11 05:57:44;;;;;;;;;;;;;;;17.97;54.43;101753.25;5056435;28;20488;-77
2022/08/11 06:00:10;;;;;;;;;;;;;;;17.96;54.96;101752.38;5054941;28;19913;-77
2022/08/11 06:02:50;;;;;;;;;;;;;;;17.98;54.68;101750.56;5058066;28;19969;-77
2022/08/11 06:05:15;;;;;;;;;;;;;;;18.02;54.50;101754.81;5063645;28;19929;-77
2022/08/11 06:07:41;;;;;;;;;;;;;;;18.06;53.78;101752.94;5057713;28;19921;-77
2022/08/11 06:10:07;;;;;;;;;;;;;;;18.05;54.91;101753.81;5070674;28;20388;-77
2022/08/11 06:12:36;;;;;;;;;;;;;;;18.07;53.75;101754.63;5067243;28;19960;-77
2022/08/11 06:15:04;;;;;;;;;;;;;;;18.10;53.96;101752.75;5055416;28;19923;-76
2022/08/11 06:17:31;;;;;;;;;;;;;;;18.14;53.85;101754.34;5060493;28;19920;-76
2022/08/11 06:20:01;;;;;;;;;;;;;;;18.14;53.62;101750.88;5062433;28;19924;-77
2022/08/11 06:22:27;;;;;;;;;;;;;;;18.15;53.51;101750.78;5059717;28;19974;-76
2022/08/11 06:24:57;;;;;;;;;;;;;;;18.18;52.95;101748.03;5058106;28;19928;-77
2022/08/11 06:27:25;;;;;;;;;;;;;;;18.21;52.51;101743.63;5054343;28;19921;-77
2022/08/11 06:29:54;;;;;;;;;;;;;;;18.24;53.27;101748.75;5046069;28;20305;-77
2022/08/11 06:32:24;;;;;;;;;;;;;;;18.23;53.54;101750.53;5058026;28;20300;-77
2022/08/11 06:35:08;;;;;;;;;;;;;;;18.27;51.14;101749.50;5041268;28;19928;-77
2022/08/11 06:37:42;;;;;;;;;;;;;;;18.29;51.76;101755.56;5051897;28;19920;-77
2022/08/11 06:40:26;;;;;;;;;;;;;;;18.39;49.27;101751.66;5053602;28;20017;-77
2022/08/11 06:43:05;;;;;;;;;;;;;;;18.46;48.96;101747.06;5056773;28;19920;-77
2022/08/11 06:45:49;;;;;;;;;;;;;;;18.44;49.87;101748.88;5054777;28;20015;-77
2022/08/11 06:48:16;;;;;;;;;;;;;;;18.45;50.04;101751.44;5056562;28;20360;-77
2022/08/11 06:53:31;;;;;;;;;;;;;;;18.46;50.37;101736.53;5053888;28;19982;-77
2022/08/11 07:01:29;;;;;;;;;;;;;;;18.50;50.77;101746.91;5057997;28;19978;-77
2022/08/11 07:04:01;;;;;;;;;;;;;;;18.52;51.01;101747.69;5060599;28;19924;-77
2022/08/11 07:06:32;;;;;;;;;;;;;;;18.55;51.92;101754.59;5058196;28;19960;-77
2022/08/11 07:17:31;;;;;;;;;;;;;;;18.66;49.90;101736.59;5063280;28;20042;-77
2022/08/11 07:31:13;;;;;;;;;;;;;;;18.84;48.56;101732.41;5059883;28;19944;-77
2022/08/11 07:33:43;;;;;;;;;;;;;;;18.86;48.26;101730.56;5045853;28;20361;-77
2022/08/11 07:36:11;;;;;;;;;;;;;;;18.88;47.52;101732.22;5065248;28;19912;-77
2022/08/11 07:38:44;;;;;;;;;;;;;;;18.87;48.39;101722.59;5056016;28;20399;-77
2022/08/11 07:41:11;;;;;;;;;;;;;;;18.90;48.11;101726.88;5059615;28;19936;-77
2022/08/11 07:43:37;;;;;;;;;;;;;;;18.91;48.87;101723.34;5061676;28;19928;-77
2022/08/11 07:54:16;;;;;;;;;;;;;;;18.92;49.86;101715.41;5059853;28;20006;-77
2022/08/11 07:56:42;;;;;;;;;;;;;;;18.97;47.98;101720.47;5058932;28;19946;-77
2022/08/11 08:18:18;;;;;;;;;;;;;;;18.99;49.95;101732.63;5061313;28;19966;-77
2022/08/11 08:20:45;;;;;;;;;;;;;;;19.04;48.96;101728.06;5064325;28;19920;-77
2022/08/11 08:23:10;;;;;;;;;;;;;;;19.03;48.50;101723.72;5065058;28;19920;-77
2022/08/11 08:25:38;;;;;;;;;;;;;;;19.08;48.58;101718.22;5060199;28;19925;-76
2022/08/11 08:28:06;;;;;;;;;;;;;;;19.05;48.32;101721.00;5057827;28;19920;-77
2022/08/11 08:30:47;;;;;;;;;;;;;;;19.02;53.99;101729.03;5042763;28;19928;-77
2022/08/11 08:33:19;;;;;;;;;;;;;;;19.01;51.24;101720.28;5054664;28;20399;-77
2022/08/11 08:35:46;;;;;;;;;;;;;;;19.04;51.02;101717.53;5054418;28;20370;-77
2022/08/11 08:38:12;;;;;;;;;;;;;;;19.06;51.45;101718.31;5056500;28;20484;-77
2022/08/11 08:40:39;;;;;;;;;;;;;;;19.17;49.32;101717.84;5056825;28;19968;-77
2022/08/11 08:43:10;;;;;;;;;;;;;;;19.10;49.76;101725.19;5059037;28;20018;-77
2022/08/11 08:45:36;;;;;;;;;;;;;;;19.19;48.32;101716.03;5058528;28;19966;-77
2022/08/11 08:48:11;;;;;;;;;;;;;;;19.16;48.96;101719.63;5047882;28;19915;-77
2022/08/11 08:53:27;;;;;;;;;;;;;;;19.02;58.05;101715.84;5042390;28;20412;-77
2022/08/11 08:55:55;;;;;;;;;;;;;;;19.07;53.40;101717.41;5058951;28;20394;-77
2022/08/11 08:58:22;;;;;;;;;;;;;;;19.05;55.85;101715.72;5063427;28;19917;-77
2022/08/11 09:00:49;;;;;;;;;;;;;;;18.99;57.81;101721.25;5061250;28;19924;-77
2022/08/11 09:03:14;;;;;;;;;;;;;;;19.01;58.13;101722.06;5060115;28;19931;-77
2022/08/11 09:05:40;;;;;;;;;;;;;;;19.01;57.36;101722.06;5062928;28;19924;-77
2022/08/11 09:08:06;;;;;;;;;;;;;;;19.00;56.75;101718.56;5056134;28;19928;-78
2022/08/11 09:10:32;;;;;;;;;;;;;;;19.00;59.36;101721.19;5064585;28;20023;-78
2022/08/11 09:12:58;;;;;;;;;;;;;;;19.01;59.71;101716.78;5058270;28;19920;-78
2022/08/11 09:15:24;;;;;;;;;;;;;;;19.10;57.97;101721.69;5058326;28;20443;-77
2022/08/11 09:17:57;;;;;;;;;;;;;;;19.26;50.53;101720.97;5053923;28;19951;-77
2022/08/11 09:20:28;;;;;;;;;;;;;;;19.14;53.44;101708.31;5058386;28;20081;-78
2022/08/11 09:28:28;;;;;;;;;;;;;;;19.19;56.73;101711.59;5063718;28;19961;-77
2022/08/11 09:30:54;;;;;;;;;;;;;;;19.24;49.51;101704.38;5063708;28;19921;-77
2022/08/11 09:33:20;;;;;;;;;;;;;;;19.40;54.93;101711.66;5046235;28;20389;-77
2022/08/11 09:35:47;;;;;;;;;;;;;;;19.20;58.29;101713.31;5060089;28;19927;-77
2022/08/11 09:40:59;;;;;;;;;;;;;;;19.11;59.34;101710.22;5061396;28;20281;-77
2022/08/11 09:46:09;;;;;;;;;;;;;;;19.11;59.84;101703.16;5058384;28;19927;-77
2022/08/11 09:48:44;;;;;;;;;;;;;;;19.13;59.11;101703.13;5052482;28;20324;-77
2022/08/11 09:51:10;;;;;;;;;;;;;;;19.10;60.17;101697.97;5054196;28;19913;-77
2022/08/11 09:53:40;;;;;;;;;;;;;;;19.11;59.97;101694.41;5042608;28;19927;-78
2022/08/11 09:58:54;;;;;;;;;;;;;;;19.12;58.79;101688.22;5063360;28;19938;-77
2022/08/11 10:01:27;;;;;;;;;;;;;;;19.75;44.38;101679.34;5059529;28;19917;-77
2022/08/11 10:03:59;;;;;;;;;;;;;;;19.56;47.54;101671.41;5051387;28;19951;-76
2022/08/11 10:09:10;;;;;;;;;;;;;;;19.67;49.24;101686.72;5054003;28;19928;-77
2022/08/11 10:11:36;;;;;;;;;;;;;;;19.71;44.66;101676.00;5054637;28;19921;-77
2022/08/11 10:16:48;;;;;;;;;;;;;;;19.31;58.67;101678.69;5061326;28;19932;-76
2022/08/11 10:19:17;;;;;;;;;;;;;;;19.26;59.26;101680.59;5056482;28;19920;-77
2022/08/11 10:26:48;;;;;;;;;;;;;;;19.24;59.38;101674.53;5056684;28;19917;-77
2022/08/11 10:27:14;;;;;;;;;;;;;;;19.29;59.87;101674.38;5060572;28;20550;-77
2022/08/11 10:35:14;;;;;;;;;;;;;;;19.60;52.09;101651.03;5065540;28;21907;-77
2022/08/11 10:37:41;;;;;;;;;;;;;;;19.79;48.58;101644.88;5043893;28;19926;-77
2022/08/11 10:40:07;;;;;;;;;;;;;;;19.36;59.04;101660.88;5065263;28;19925;-77
2022/08/11 10:48:03;;;;;;;;;;;;;;;19.26;60.07;101659.50;5055998;28;20402;-78
2022/08/11 10:58:51;;;;;;;;;;;;;;;19.50;58.56;101633.91;5060083;28;19955;-78
2022/08/11 11:01:27;;;;;;;;;;;;;;;19.31;60.41;101638.28;5064497;28;19932;-78
2022/08/11 11:03:58;;;;;;;;;;;;;;;19.52;53.82;101624.19;5064129;28;20596;-78
2022/08/11 11:06:26;;;;;;;;;;;;;;;19.36;59.47;101626.63;5062121;28;19971;-78
2022/08/11 11:09:11;;;;;;;;;;;;;;;19.43;59.51;101619.31;5045548;28;19928;-78
2022/08/11 11:19:57;;;;;;;;;;;;;;;19.44;53.94;101599.94;5059891;28;19928;-78
2022/08/11 11:22:37;;;;;;;;;;;;;;;19.40;59.63;101599.19;5045555;28;19928;-77
2022/08/11 11:25:15;;;;;;;;;;;;;;;19.38;59.98;101601.06;5058113;28;19929;-78
2022/08/11 11:27:49;;;;;;;;;;;;;;;19.36;60.27;101597.66;5060634;28;19924;-78
2022/08/11 11:30:16;;;;;;;;;;;;;;;19.89;54.50;101592.56;5059411;28;19920;-78
2022/08/11 11:32:54;;;;;;;;;;;;;;;19.39;59.79;101591.38;5049951;28;20770;-78
2022/08/11 11:35:35;;;;;;;;;;;;;;;19.49;59.23;101580.34;5060080;28;19983;-78
2022/08/11 11:38:01;;;;;;;;;;;;;;;19.60;58.69;101585.16;5063459;28;20125;-77
2022/08/11 11:40:27;;;;;;;;;;;;;;;19.39;60.24;101586.97;5061921;28;20016;-77
2022/08/11 11:42:55;;;;;;;;;;;;;;;19.56;52.29;101581.78;5051658;28;19962;-77
2022/08/11 11:45:22;;;;;;;;;;;;;;;19.79;51.55;101580.72;5060921;28;19925;-77
2022/08/11 11:47:52;;;;;;;;;;;;;;;19.85;55.13;101579.63;5060300;28;20559;-78
2022/08/11 11:50:27;;;;;;;;;;;;;;;20.05;46.93;101571.63;5062534;28;19928;-78
2022/08/11 11:52:54;;;;;;;;;;;;;;;19.77;56.59;101577.31;5042359;28;20300;-78
2022/08/11 11:55:23;;;;;;;;;;;;;;;19.66;57.66;101576.97;5059543;28;19923;-77
2022/08/11 12:03:18;;;;;;;;;;;;;;;19.41;60.11;101564.03;5057336;28;20430;-78
2022/08/11 12:05:44;;;;;;;;;;;;;;;19.46;60.27;101562.03;5061466;28;19924;-80
2022/08/11 12:10:42;;;;;;;;;;;;;;;19.74;49.21;101543.19;5063103;28;19921;-80
2022/08/11 12:15:51;;;;;;;;;;;;;;;19.86;51.14;101539.13;5057585;28;19945;-80
2022/08/11 12:18:17;;;;;;;;;;;;;;;20.10;45.42;101530.06;5062693;28;20319;-81
2022/08/11 12:20:43;;;;;;;;;;;;;;;20.18;56.06;101530.53;5042936;28;20384;-80
2022/08/11 12:28:38;;;;;;;;;;;;;;;19.91;57.51;101518.66;5054801;28;19928;-80
2022/08/11 12:31:05;;;;;;;;;;;;;;;19.70;58.84;101526.66;5057036;28;19920;-80
2022/08/11 12:33:30;;;;;;;;;;;;;;;19.55;59.83;101523.91;5058235;28;19921;-80
2022/08/11 12:35:57;;;;;;;;;;;;;;;20.17;55.67;101518.31;5041790;28;19921;-80
2022/08/11 12:38:22;;;;;;;;;;;;;;;19.82;58.07;101522.56;5059501;28;20333;-80
2022/08/11 12:46:19;;;;;;;;;;;;;;;20.35;52.43;101517.41;5064250;28;20433;-80
2022/08/11 12:51:57;;;;;;;;;;;;;;;19.69;58.71;101517.06;5055398;28;19974;-80
2022/08/11 12:54:23;;;;;;;;;;;;;;;19.77;58.71;101503.50;5063031;28;19971;-80
2022/08/11 13:05:08;;;;;;;;;;;;;;;19.56;59.97;101493.97;5060672;28;20471;-80
2022/08/11 13:07:33;;;;;;;;;;;;;;;19.55;60.35;101498.38;5022753;28;20015;-80
2022/08/11 13:10:00;;;;;;;;;;;;;;;19.56;60.27;101491.31;5059006;28;20019;-80
2022/08/11 13:15:12;;;;;;;;;;;;;;;19.76;58.95;101488.59;5055157;28;19932;-80
2022/08/11 13:17:39;;;;;;;;;;;;;;;21.02;40.52;101474.34;5061031;28;19927;-80
2022/08/11 13:20:06;;;;;;;;;;;;;;;19.99;57.32;101488.38;5059057;28;19924;-80
2022/08/11 13:22:31;;;;;;;;;;;;;;;19.76;59.07;101491.22;5054917;28;19929;-80
2022/08/11 13:24:57;;;;;;;;;;;;;;;19.69;59.88;101482.78;5057290;28;19934;-80
2022/08/11 13:27:23;;;;;;;;;;;;;;;20.74;42.67;101464.34;5060250;28;20011;-80
2022/08/11 13:29:49;;;;;;;;;;;;;;;20.80;43.72;101464.88;5057893;28;20023;-80
2022/08/11 13:32:15;;;;;;;;;;;;;;;20.26;55.20;101470.38;5058929;28;20011;-80
2022/08/11 13:34:41;;;;;;;;;;;;;;;19.88;57.81;101468.72;5061724;28;19916;-80
2022/08/11 13:37:09;;;;;;;;;;;;;;;19.86;58.42;101465.28;5053667;28;20362;-80
2022/08/11 13:39:35;;;;;;;;;;;;;;;19.88;58.73;101466.91;5060984;28;20395;-80
2022/08/11 13:42:01;;;;;;;;;;;;;;;20.08;47.37;101460.72;5066873;28;19933;-80
2022/08/11 13:44:28;;;;;;;;;;;;;;;19.98;58.53;101468.19;5056534;28;19924;-80
2022/08/11 13:46:56;;;;;;;;;;;;;;;20.06;57.16;101466.03;5062059;28;19931;-80
2022/08/11 13:49:22;;;;;;;;;;;;;;;20.73;48.57;101460.00;5055234;28;19920;-80
2022/08/11 13:51:48;;;;;;;;;;;;;;;20.52;55.96;101455.84;5060350;28;20457;-80
2022/08/11 13:54:26;;;;;;;;;;;;;;;20.62;56.83;101455.28;5044787;28;19920;-80
2022/08/11 13:56:53;;;;;;;;;;;;;;;21.51;52.25;101441.66;5056692;28;19928;-80
2022/08/11 13:59:21;;;;;;;;;;;;;;;21.71;50.36;101441.44;5058822;28;20017;-80
2022/08/11 14:01:48;;;;;;;;;;;;;;;21.03;54.36;101441.72;5058211;28;19932;-80
2022/08/11 14:04:15;;;;;;;;;;;;;;;20.70;55.79;101445.19;5067704;28;20378;-80
2022/08/11 14:06:44;;;;;;;;;;;;;;;21.48;42.85;101427.78;5053861;28;19930;-80
2022/08/11 14:09:10;;;;;;;;;;;;;;;21.65;40.00;101425.06;5056625;28;19916;-80
2022/08/11 14:14:23;;;;;;;;;;;;;;;22.22;37.44;101423.50;5062590;28;19928;-80
2022/08/11 14:16:50;;;;;;;;;;;;;;;21.79;38.51;101420.69;5043239;28;19921;-80
2022/08/11 14:19:18;;;;;;;;;;;;;;;21.93;37.98;101414.59;5061412;28;19927;-80
2022/08/11 14:24:51;;;;;;;;;;;;;;;21.59;38.28;101409.56;5040438;28;19924;-80
2022/08/11 14:27:17;;;;;;;;;;;;;;;20.81;53.56;101412.91;5060918;28;19917;-80
2022/08/11 14:29:43;;;;;;;;;;;;;;;21.74;39.96;101406.91;5059495;28;19921;-80
2022/08/11 14:32:12;;;;;;;;;;;;;;;21.19;42.73;101411.72;5066773;28;19927;-80
2022/08/11 14:34:42;;;;;;;;;;;;;;;20.51;55.64;101409.25;5064244;28;19935;-78
2022/08/11 14:37:11;;;;;;;;;;;;;;;20.47;54.88;101408.53;5062035;28;20404;-78
2022/08/11 14:39:40;;;;;;;;;;;;;;;20.76;46.45;101401.75;5065083;28;20426;-78
2022/08/11 14:47:36;;;;;;;;;;;;;;;21.01;43.76;101382.81;5059823;28;19970;-78
2022/08/11 14:50:02;;;;;;;;;;;;;;;21.83;38.55;101376.41;5060055;28;19956;-78
2022/08/11 14:52:30;;;;;;;;;;;;;;;21.19;46.05;101382.66;5059342;28;19928;-78
2022/08/11 14:57:41;;;;;;;;;;;;;;;20.37;56.92;101388.88;5054018;28;20488;-78
2022/08/11 15:00:08;;;;;;;;;;;;;;;20.45;57.13;101386.66;5069709;28;20474;-78
2022/08/11 15:05:22;;;;;;;;;;;;;;;20.54;49.77;101374.78;5059324;28;19936;-78
2022/08/11 15:07:48;;;;;;;;;;;;;;;20.30;58.35;101385.69;5058820;28;19925;-78
2022/08/11 15:10:15;;;;;;;;;;;;;;;20.69;46.95;101376.59;5061785;28;20601;-78
2022/08/11 15:12:41;;;;;;;;;;;;;;;20.82;45.88;101364.47;5062760;28;20990;-78
2022/08/11 15:17:53;;;;;;;;;;;;;;;20.48;56.95;101378.59;5056341;28;20289;-78
2022/08/11 15:25:49;;;;;;;;;;;;;;;21.56;42.72;101362.09;5045121;28;20312;-78
2022/08/11 15:39:25;;;;;;;;;;;;;;;20.75;58.07;101357.78;5059241;28;19994;-78
2022/08/11 15:47:56;;;;;;;;;;;;;;;20.66;58.66;101340.66;5059281;28;19927;-78
2022/08/11 15:50:23;;;;;;;;;;;;;;;21.33;43.37;101321.13;5060175;28;19928;-78
2022/08/11 15:52:53;;;;;;;;;;;;;;;21.50;52.78;101334.22;5060904;28;19921;-78
2022/08/11 15:55:20;;;;;;;;;;;;;;;20.94;57.06;101345.34;5057142;28;20278;-78
2022/08/11 16:06:01;;;;;;;;;;;;;;;20.60;59.14;101333.06;5061016;28;19939;-78
2022/08/11 16:08:27;;;;;;;;;;;;;;;21.09;48.83;101331.28;5061833;28;20007;-78
2022/08/11 16:10:54;;;;;;;;;;;;;;;21.40;41.56;101315.41;5057638;28;20035;-78
2022/08/11 16:18:40;;;;;;;;;;;;;;;21.17;53.05;101320.28;5052762;28;20114;-78
2022/08/11 16:21:16;;;;;;;;;;;;;;;22.26;36.52;101304.13;5055483;28;19967;-78
2022/08/11 16:23:44;;;;;;;;;;;;;;;20.81;56.71;101321.34;5061516;28;19952;-78
2022/08/11 16:26:09;;;;;;;;;;;;;;;20.61;58.81;101315.44;5031292;28;20007;-78
2022/08/11 16:28:35;;;;;;;;;;;;;;;20.56;59.35;101315.69;5054613;28;20011;-78
2022/08/11 16:31:01;;;;;;;;;;;;;;;20.51;59.14;101317.72;5063889;28;19936;-78
2022/08/11 16:33:27;;;;;;;;;;;;;;;20.57;58.65;101309.47;5052502;28;19924;-78
2022/08/11 16:38:38;;;;;;;;;;;;;;;20.55;59.65;101307.88;5049826;28;19923;-78
2022/08/11 16:46:57;;;;;;;;;;;;;;;20.41;60.49;101311.25;5067810;28;19928;-78
2022/08/11 16:49:26;;;;;;;;;;;;;;;20.80;56.77;101305.56;5059746;28;20019;-78
2022/08/11 16:51:51;;;;;;;;;;;;;;;20.96;53.28;101297.69;5064799;28;19924;-78
2022/08/11 16:54:17;;;;;;;;;;;;;;;21.72;41.97;101288.91;5059069;28;19973;-78
2022/08/11 16:56:44;;;;;;;;;;;;;;;21.42;53.97;101289.72;5059996;28;19917;-78
2022/08/11 16:59:25;;;;;;;;;;;;;;;20.86;48.89;101289.44;5050655;28;19963;-78
2022/08/11 17:01:56;;;;;;;;;;;;;;;20.55;57.38;101292.03;5042900;28;20011;-78
2022/08/11 17:13:10;;;;;;;;;;;;;;;20.44;59.78;101299.69;5073692;28;19970;-78
2022/08/11 17:18:41;;;;;;;;;;;;;;;20.82;54.18;101285.25;5057504;28;19970;-78
2022/08/11 17:21:18;;;;;;;;;;;;;;;20.47;59.76;101281.03;5060364;28;20002;-78
2022/08/11 17:23:45;;;;;;;;;;;;;;;20.56;56.26;101278.72;5065077;28;19916;-78
2022/08/11 17:26:13;;;;;;;;;;;;;;;20.56;59.42;101283.19;5058391;28;20393;-78
2022/08/11 17:28:40;;;;;;;;;;;;;;;20.42;60.21;101275.13;5060796;28;19941;-78
2022/08/11 17:36:36;;;;;;;;;;;;;;;20.35;60.83;101275.47;5059399;28;20018;-78
2022/08/11 17:39:01;;;;;;;;;;;;;;;20.30;60.96;101274.88;5069745;28;20344;-78
2022/08/11 17:49:41;;;;;;;;;;;;;;;20.28;60.96;101287.28;5060194;28;19963;-78
2022/08/11 18:00:21;;;;;;;;;;;;;;;20.24;61.03;101288.38;5057401;28;19986;-78
2022/08/11 18:05:32;;;;;;;;;;;;;;;20.23;61.05;101289.31;5064054;28;19935;-78
